Time;durP1;ratioP1;P1;durP2;ratioP2;P2;SDS_P1;SDS_P2;PMS_P1;PMS_P2;Temp;Humidity;BMP_temperature;BMP_pressure;BME280_temperature;BME280_humidity;BME280_pressure;Samples;Min_cycle;Max_cycle;Signal;HPM_P1;HPM_P2
2021/01/04 00:01:14;;;;;;;105.57;72.13;;;;;;;2.50;82.54;98667.64;119225;1150;65200;-82
2021/01/04 00:03:43;;;;;;;109.00;70.60;;;;;;;2.48;82.58;98671.25;119267;1150;65095;-80
2021/01/04 00:06:20;;;;;;;115.85;75.75;;;;;;;2.44;82.41;98672.27;119321;1150;65140;-80
2021/01/04 00:09:08;;;;;;;121.40;82.23;;;;;;;2.33;82.41;98668.28;119245;1151;65135;-81
2021/01/04 00:11:53;;;;;;;117.10;81.77;;;;;;;2.22;82.70;98664.38;119299;1151;65229;-80
2021/01/04 00:14:46;;;;;;;112.60;78.10;;;;;;;2.08;82.68;98673.64;119301;1151;65127;-80
2021/01/04 00:17:31;;;;;;;111.90;73.60;;;;;;;1.96;82.66;98674.09;119325;1150;65124;-80
2021/01/04 00:20:07;;;;;;;116.20;76.50;;;;;;;1.92;83.05;98672.47;119282;1150;65207;-81
2021/01/04 00:22:44;;;;;;;125.45;83.55;;;;;;;1.91;83.07;98674.25;119292;1150;65170;-80
2021/01/04 00:25:27;;;;;;;126.67;86.97;;;;;;;1.92;83.06;98681.24;119312;1151;65129;-81
2021/01/04 00:28:10;;;;;;;138.87;96.70;;;;;;;1.91;83.10;98678.66;119052;1150;65092;-80
2021/01/04 00:30:47;;;;;;;144.90;98.43;;;;;;;1.91;82.95;98676.03;119100;1151;65232;-80
2021/01/04 00:33:23;;;;;;;141.67;94.33;;;;;;;1.88;83.17;98679.62;119231;1149;65101;-80
2021/01/04 00:35:55;;;;;;;132.33;88.00;;;;;;;1.88;83.20;98682.25;119310;1151;65034;-80
2021/01/04 00:39:02;;;;;;;129.77;84.97;;;;;;;1.89;83.54;98678.70;119113;1151;65130;-80
2021/01/04 00:42:03;;;;;;;121.00;83.50;;;;;;;1.94;83.11;98679.39;118905;1150;65283;-82
2021/01/04 00:44:45;;;;;;;126.83;82.50;;;;;;;2.02;83.65;98680.88;119280;1150;65127;-80
2021/01/04 00:47:34;;;;;;;129.35;87.35;;;;;;;2.07;83.22;98671.91;119281;1150;65257;-80
2021/01/04 00:50:14;;;;;;;132.95;90.25;;;;;;;2.12;83.38;98661.23;119322;1151;65031;-80
2021/01/04 00:52:49;;;;;;;138.10;91.23;;;;;;;2.15;83.54;98658.48;119273;1150;65116;-81
2021/01/04 00:55:51;;;;;;;145.55;94.55;;;;;;;2.19;83.41;98665.34;119333;1151;65127;-80
2021/01/04 00:58:20;;;;;;;129.85;91.60;;;;;;;2.22;83.46;98667.85;119223;1150;65203;-80
2021/01/04 01:01:16;;;;;;;125.00;83.13;;;;;;;2.26;83.04;98658.06;119227;1150;65146;-81
2021/01/04 01:04:15;;;;;;;122.73;82.83;;;;;;;2.30;83.14;98657.05;119321;1150;65056;-80
2021/01/04 01:06:57;;;;;;;118.10;81.83;;;;;;;2.36;83.25;98664.68;118867;1151;65159;-80
2021/01/04 01:09:29;;;;;;;135.30;86.35;;;;;;;2.37;83.26;98661.13;119325;1150;65123;-80
2021/01/04 01:12:33;;;;;;;131.63;89.27;;;;;;;2.39;83.09;98670.66;119351;1150;65132;-80
2021/01/04 01:15:09;;;;;;;134.03;89.37;;;;;;;2.41;82.91;98665.36;119284;1150;65191;-82
2021/01/04 01:18:00;;;;;;;130.17;89.27;;;;;;;2.40;83.30;98668.92;118959;1151;65127;-79
2021/01/04 01:20:27;;;;;;;130.80;86.63;;;;;;;2.39;82.98;98660.14;119227;1150;65152;-82
2021/01/04 01:22:54;;;;;;;116.13;83.23;;;;;;;2.40;83.14;98661.03;119202;1150;65012;-80
2021/01/04 01:25:26;;;;;;;106.30;73.67;;;;;;;2.38;83.25;98671.59;119015;1151;65163;-80
2021/01/04 01:28:22;;;;;;;112.60;76.77;;;;;;;2.40;82.81;98672.40;119237;1150;65740;-80
2021/01/04 01:31:21;;;;;;;118.03;80.03;;;;;;;2.43;83.41;98671.42;119284;1151;65140;-80
2021/01/04 01:34:05;;;;;;;132.73;86.67;;;;;;;2.46;82.88;98675.70;119053;1150;65154;-80
2021/01/04 01:36:55;;;;;;;125.57;85.53;;;;;;;2.46;83.23;98676.56;119312;1150;65145;-80
2021/01/04 01:39:33;;;;;;;127.50;86.15;;;;;;;2.41;83.09;98671.47;119109;1150;65156;-80
2021/01/04 01:42:39;;;;;;;129.67;86.40;;;;;;;2.39;83.38;98680.34;119305;1151;65146;-80
2021/01/04 01:45:29;;;;;;;116.10;81.10;;;;;;;2.38;83.18;98676.85;119287;1150;65231;-79
2021/01/04 01:48:02;;;;;;;115.65;80.00;;;;;;;2.38;83.01;98663.70;119409;1150;65572;-80
2021/01/04 01:50:53;;;;;;;111.97;79.37;;;;;;;2.38;83.12;98668.12;119304;1150;65107;-80
2021/01/04 01:53:46;;;;;;;116.60;81.60;;;;;;;2.35;83.12;98666.46;119043;1150;65130;-80
2021/01/04 01:56:47;;;;;;;119.40;84.27;;;;;;;2.32;82.92;98669.21;119294;1151;65278;-80
2021/01/04 01:59:32;;;;;;;;;;;;;;;2.31;83.43;98679.78;119381;1150;65129;-79
2021/01/04 02:02:23;;;;;;;122.60;81.83;;;;;;;2.28;83.14;98669.38;119301;1150;65123;-80
2021/01/04 02:04:57;;;;;;;112.80;78.80;;;;;;;2.26;83.15;98671.20;119123;1151;65206;-80
2021/01/04 02:07:33;;;;;;;110.53;74.23;;;;;;;2.30;83.66;98664.93;118756;1151;65069;-80
2021/01/04 02:10:05;;;;;;;116.80;79.10;;;;;;;2.34;83.38;98671.77;119097;1151;65258;-79
2021/01/04 02:12:46;;;;;;;118.00;80.47;;;;;;;2.33;83.16;98665.66;119007;1150;65098;-80
2021/01/04 02:15:21;;;;;;;121.30;84.93;;;;;;;2.31;83.42;98667.48;119040;1151;65213;-79
2021/01/04 02:18:29;;;;;;;121.57;82.73;;;;;;;2.29;83.38;98671.08;119327;1151;65052;-82
2021/01/04 02:21:11;;;;;;;105.03;73.73;;;;;;;2.24;83.41;98671.28;119329;1150;65092;-81
2021/01/04 02:23:56;;;;;;;107.33;73.30;;;;;;;2.23;83.50;98674.81;118503;1151;65193;-80
2021/01/04 02:26:26;;;;;;;98.10;69.17;;;;;;;2.23;83.74;98676.59;119011;1150;65147;-81
2021/01/04 02:29:04;;;;;;;103.03;71.03;;;;;;;2.23;83.65;98664.30;119261;1150;65101;-81
2021/01/04 02:31:33;;;;;;;107.30;72.53;;;;;;;2.24;83.76;98665.14;119321;1150;65114;-81
2021/01/04 02:34:01;;;;;;;111.17;75.10;;;;;;;2.24;83.74;98665.14;119367;1151;65148;-81
2021/01/04 02:36:31;;;;;;;108.87;75.73;;;;;;;2.23;83.48;98672.18;119312;1150;65198;-79
2021/01/04 02:39:09;;;;;;;101.67;72.90;;;;;;;2.23;83.40;98673.96;119326;1151;65130;-80
2021/01/04 02:42:12;;;;;;;98.40;69.23;;;;;;;2.21;83.29;98666.12;119094;1151;65180;-80
2021/01/04 02:44:40;;;;;;;101.80;67.60;;;;;;;2.20;83.79;98672.30;119314;1150;65103;-80
2021/01/04 02:47:42;;;;;;;93.50;65.83;;;;;;;2.23;83.99;98687.11;119019;1150;65097;-80
2021/01/04 02:50:23;;;;;;;104.20;71.60;;;;;;;2.23;84.01;98685.33;119243;1150;65172;-80
2021/01/04 02:53:00;;;;;;;117.33;78.97;;;;;;;2.27;83.56;98678.20;119285;1150;65130;-80
2021/01/04 02:55:52;;;;;;;108.87;74.47;;;;;;;2.27;83.41;98675.57;119310;1150;65442;-80
2021/01/04 02:58:46;;;;;;;112.57;75.93;;;;;;;2.22;83.63;98670.48;119276;1151;65063;-80
2021/01/04 03:01:39;;;;;;;101.75;69.10;;;;;;;2.17;83.65;98673.28;119080;1151;65127;-80
2021/01/04 03:04:10;;;;;;;99.47;66.97;;;;;;;2.16;83.48;98673.35;119326;1149;65243;-80
2021/01/04 03:06:57;;;;;;;96.20;66.00;;;;;;;2.16;83.58;98663.69;119265;1150;65130;-79
2021/01/04 03:09:29;;;;;;;97.10;66.35;;;;;;;2.13;83.60;98661.19;119237;1150;65484;-80
2021/01/04 03:11:57;;;;;;;93.90;65.87;;;;;;;2.12;83.50;98669.96;119236;1151;65234;-80
2021/01/04 03:15:08;;;;;;;104.17;68.67;;;;;;;2.12;84.23;98675.22;118994;1150;65138;-80
2021/01/04 03:17:39;;;;;;;110.47;76.00;;;;;;;2.09;84.25;98677.97;118625;1150;65220;-81
2021/01/04 03:20:11;;;;;;;109.97;75.90;;;;;;;2.06;84.13;98680.72;118740;1151;65115;-81
2021/01/04 03:22:38;;;;;;;114.27;77.10;;;;;;;2.00;83.90;98665.16;119273;1151;65536;-80
2021/01/04 03:25:16;;;;;;;111.17;75.27;;;;;;;1.96;84.35;98681.97;119093;1151;65122;-80
2021/01/04 03:27:42;;;;;;;113.03;73.83;;;;;;;1.91;84.20;98678.66;119327;1151;65117;-80
2021/01/04 03:30:10;;;;;;;104.65;72.40;;;;;;;1.88;84.26;98678.78;119051;1150;65233;-80
2021/01/04 03:32:38;;;;;;;110.33;75.87;;;;;;;1.87;83.84;98679.67;118837;1150;65256;-80
2021/01/04 03:35:06;;;;;;;120.33;81.13;;;;;;;1.88;84.42;98684.03;119363;1150;65207;-80
2021/01/04 03:37:33;;;;;;;122.47;82.80;;;;;;;1.87;84.06;98692.80;119231;1150;65111;-80
2021/01/04 03:39:59;;;;;;;127.40;87.55;;;;;;;1.84;84.38;98696.41;119300;1150;65009;-80
2021/01/04 03:42:25;;;;;;;124.17;84.17;;;;;;;1.82;83.88;98694.74;118641;1151;65213;-80
2021/01/04 03:44:52;;;;;;;115.00;79.43;;;;;;;1.80;84.37;98697.45;118964;1151;65127;-81
2021/01/04 03:47:18;;;;;;;107.20;77.10;;;;;;;1.80;83.91;98694.81;119307;1150;65100;-81
2021/01/04 03:49:45;;;;;;;112.30;75.63;;;;;;;1.82;84.42;98692.12;118874;1151;65063;-81
2021/01/04 03:52:11;;;;;;;112.23;77.30;;;;;;;1.82;84.80;98697.37;118977;1150;65442;-82
2021/01/04 03:54:42;;;;;;;116.60;79.70;;;;;;;1.84;84.12;98687.67;118716;1151;65121;-80
2021/01/04 03:57:09;;;;;;;114.37;79.73;;;;;;;1.84;84.83;98701.66;118891;1150;65124;-80
2021/01/04 03:59:35;;;;;;;108.23;73.50;;;;;;;1.86;84.72;98704.24;119265;1150;65117;-80
2021/01/04 04:02:03;;;;;;;103.20;70.47;;;;;;;1.87;84.87;98701.58;119290;1150;65149;-81
2021/01/04 04:04:30;;;;;;;92.70;61.80;;;;;;;1.90;84.75;98698.83;119354;1150;65206;-80
2021/01/04 04:06:57;;;;;;;87.90;60.47;;;;;;;1.93;84.78;98705.74;119007;1150;65136;-80
2021/01/04 04:09:24;;;;;;;90.10;60.43;;;;;;;1.97;84.82;98702.95;118719;1151;66352;-81
2021/01/04 04:11:51;;;;;;;90.60;61.40;;;;;;;2.05;84.85;98713.16;118600;1150;65120;-79
2021/01/04 04:14:18;;;;;;;109.77;76.13;;;;;;;2.07;84.85;98721.00;119241;1150;65159;-79
2021/01/04 04:16:47;;;;;;;131.00;88.40;;;;;;;2.09;84.92;98709.52;119032;1151;65124;-79
2021/01/04 04:19:14;;;;;;;107.13;70.50;;;;;;;2.11;84.51;98714.73;119259;1151;65147;-79
2021/01/04 04:21:40;;;;;;;101.13;70.90;;;;;;;2.09;84.45;98711.29;119205;1150;65034;-80
2021/01/04 04:24:07;;;;;;;108.43;72.33;;;;;;;2.08;84.75;98709.56;118414;1149;65143;-79
2021/01/04 04:26:34;;;;;;;96.67;64.90;;;;;;;2.08;84.29;98715.70;118421;1150;65183;-79
2021/01/04 04:29:00;;;;;;;94.40;66.35;;;;;;;2.09;84.57;98712.14;118636;1150;65478;-80
2021/01/04 04:31:26;;;;;;;95.00;64.65;;;;;;;2.10;84.50;98710.36;119132;1150;65284;-79
2021/01/04 04:33:53;;;;;;;97.40;65.53;;;;;;;2.13;84.58;98711.13;119131;1150;65232;-80
2021/01/04 04:36:23;;;;;;;97.60;67.13;;;;;;;2.14;84.70;98702.31;119205;1150;65150;-80
2021/01/04 04:38:51;;;;;;;102.60;67.40;;;;;;;2.15;84.38;98711.91;119262;1150;65137;-80
2021/01/04 04:41:43;;;;;;;106.40;68.85;;;;;;;2.14;84.34;98707.58;119264;1151;65147;-79
2021/01/04 04:44:30;;;;;;;96.43;66.80;;;;;;;2.13;84.21;98707.62;119259;1150;65223;-80
2021/01/04 04:47:15;;;;;;;90.43;61.10;;;;;;;2.12;84.14;98712.02;119218;1150;65114;-81
2021/01/04 04:50:02;;;;;;;87.57;58.83;;;;;;;2.12;84.75;98698.03;119220;1150;65102;-80
2021/01/04 04:52:47;;;;;;;83.40;59.00;;;;;;;2.16;84.37;98707.53;119198;1150;65111;-80
2021/01/04 04:55:35;;;;;;;95.15;63.05;;;;;;;2.17;84.35;98710.08;119210;1150;65110;-80
2021/01/04 04:58:22;;;;;;;89.87;61.37;;;;;;;2.17;84.32;98707.45;119213;1150;65145;-79
2021/01/04 05:01:18;;;;;;;95.30;62.13;;;;;;;2.16;84.47;98703.13;119245;1150;65688;-81
2021/01/04 05:04:00;;;;;;;92.40;58.87;;;;;;;2.12;84.88;98693.62;119264;1151;65034;-79
2021/01/04 05:06:49;;;;;;;86.93;58.27;;;;;;;2.10;84.54;98690.19;119305;1151;65193;-80
2021/01/04 05:09:35;;;;;;;;;;;;;;;2.09;84.69;98698.15;119365;1150;65455;-80
2021/01/04 05:12:17;;;;;;;101.33;64.33;;;;;;;2.08;84.83;98702.55;119283;1151;65120;-80
2021/01/04 05:14:55;;;;;;;90.53;58.70;;;;;;;2.08;84.58;98699.05;119298;1150;65141;-80
2021/01/04 05:17:50;;;;;;;80.50;54.83;;;;;;;2.07;84.97;98698.19;119296;1151;65149;-80
2021/01/04 05:20:20;;;;;;;83.87;54.63;;;;;;;2.06;84.63;98693.86;119306;1151;65220;-80
2021/01/04 05:22:55;;;;;;;83.03;53.38;;;;;;;2.05;84.90;98705.27;119234;1150;65041;-79
2021/01/04 05:25:59;;;;;;;77.27;50.43;;;;;;;2.02;84.70;98702.76;119176;1151;65162;-81
2021/01/04 05:28:58;;;;;;;72.43;48.17;;;;;;;2.02;84.77;98699.28;119318;1150;65137;-80
2021/01/04 05:31:33;;;;;;;74.93;49.90;;;;;;;1.99;84.60;98702.88;119267;1151;65060;-80
2021/01/04 05:34:04;;;;;;;71.57;49.23;;;;;;;2.00;84.79;98698.47;119307;1150;65220;-80
2021/01/04 05:36:30;;;;;;;85.05;55.80;;;;;;;1.98;84.62;98699.41;119074;1150;65233;-80
2021/01/04 05:39:23;;;;;;;88.07;57.97;;;;;;;1.95;84.97;98694.27;119297;1151;65124;-79
2021/01/04 05:42:07;;;;;;;88.63;60.40;;;;;;;1.88;84.48;98695.39;118806;1149;65098;-80
2021/01/04 05:44:40;;;;;;;81.37;55.90;;;;;;;1.81;84.94;98688.64;119296;1151;65107;-80
2021/01/04 05:47:29;;;;;;;78.87;56.03;;;;;;;1.76;85.04;98687.95;119277;1150;65152;-80
2021/01/04 05:50:06;;;;;;;79.70;52.73;;;;;;;1.74;85.21;98689.80;119335;1151;65117;-80
2021/01/04 05:52:34;;;;;;;77.03;51.93;;;;;;;1.71;84.95;98676.74;118802;1151;65085;-80
2021/01/04 05:55:01;;;;;;;79.23;55.00;;;;;;;1.70;85.02;98681.14;118979;1151;65555;-80
2021/01/04 05:57:28;;;;;;;86.97;57.20;;;;;;;1.68;85.38;98669.83;119077;1150;65111;-80
2021/01/04 05:59:57;;;;;;;90.07;58.07;;;;;;;1.66;85.35;98673.42;118864;1150;65126;-80
2021/01/04 06:02:34;;;;;;;91.40;56.37;;;;;;;1.63;84.83;98669.14;119241;1151;65105;-81
2021/01/04 06:05:14;;;;;;;76.80;52.60;;;;;;;1.62;85.26;98670.06;119275;1150;65275;-81
2021/01/04 06:07:43;;;;;;;84.30;53.68;;;;;;;1.60;84.91;98664.00;119360;1151;65053;-81
2021/01/04 06:10:39;;;;;;;87.05;52.85;;;;;;;1.58;85.24;98671.11;119251;1150;65087;-81
2021/01/04 06:13:06;;;;;;;83.33;54.07;;;;;;;1.56;85.35;98670.30;118850;1150;65136;-81
2021/01/04 06:15:37;;;;;;;93.57;62.97;;;;;;;1.53;85.08;98667.78;118726;1150;65118;-81
2021/01/04 06:18:19;;;;;;;101.33;65.53;;;;;;;1.47;84.82;98681.95;118852;1150;65216;-80
2021/01/04 06:20:57;;;;;;;104.53;72.47;;;;;;;1.40;84.73;98680.48;119123;1150;65034;-80
2021/01/04 06:23:32;;;;;;;102.83;74.93;;;;;;;1.33;85.18;98683.37;119313;1150;65530;-80
2021/01/04 06:26:25;;;;;;;117.20;81.80;;;;;;;1.23;85.23;98680.19;119285;1150;65088;-80
2021/01/04 06:28:56;;;;;;;111.30;79.73;;;;;;;1.17;85.16;98688.28;118952;1150;65146;-79
2021/01/04 06:31:43;;;;;;;99.53;72.40;;;;;;;1.10;85.36;98687.62;119163;1150;65136;-81
2021/01/04 06:34:21;;;;;;;93.80;63.17;;;;;;;1.05;85.31;98684.29;119051;1151;65204;-81
2021/01/04 06:36:54;;;;;;;90.03;59.40;;;;;;;1.09;85.25;98684.14;119318;1150;65121;-81
2021/01/04 06:39:28;;;;;;;102.80;63.07;;;;;;;1.10;85.63;98695.49;119356;1151;65146;-81
2021/01/04 06:41:57;;;;;;;102.73;66.10;;;;;;;1.10;85.49;98709.47;119370;1150;65125;-79
2021/01/04 06:44:29;;;;;;;101.80;69.30;;;;;;;1.08;85.26;98702.58;119300;1151;65121;-80
2021/01/04 06:47:20;;;;;;;111.37;74.33;;;;;;;1.06;85.55;98714.89;119129;1151;65239;-80
2021/01/04 06:49:53;;;;;;;115.07;78.97;;;;;;;1.04;85.64;98708.83;119320;1150;65573;-80
2021/01/04 06:52:45;;;;;;;108.70;72.50;;;;;;;1.01;85.61;98711.55;119337;1150;65106;-79
2021/01/04 06:55:20;;;;;;;110.87;71.33;;;;;;;1.01;85.66;98720.28;119310;1150;65147;-80
2021/01/04 06:57:56;;;;;;;105.73;68.90;;;;;;;1.04;85.87;98724.57;119268;1151;65158;-80
2021/01/04 07:00:47;;;;;;;109.35;72.85;;;;;;;1.08;85.84;98732.30;119325;1150;65063;-80
2021/01/04 07:03:58;;;;;;;110.10;75.53;;;;;;;1.14;85.63;98746.98;119295;1150;65533;-80
2021/01/04 07:06:37;;;;;;;113.40;76.93;;;;;;;1.14;85.29;98746.13;119325;1151;65213;-80
2021/01/04 07:09:58;;;;;;;109.33;75.13;;;;;;;1.16;85.44;98747.80;119271;1150;65098;-79
2021/01/04 07:12:35;;;;;;;115.07;78.50;;;;;;;1.20;85.21;98751.17;118336;1153;65274;-79
2021/01/04 07:15:20;;;;;;;106.00;75.00;;;;;;;1.28;85.81;98742.13;119095;1151;65204;-80
2021/01/04 07:18:02;;;;;;;108.80;75.60;;;;;;;1.36;85.48;98746.27;119303;1150;65054;-81
2021/01/04 07:20:59;;;;;;;112.20;75.80;;;;;;;1.42;85.50;98748.67;119104;1151;65515;-80
2021/01/04 07:23:50;;;;;;;111.53;81.50;;;;;;;1.53;85.52;98757.92;119298;1150;65124;-80
2021/01/04 07:26:31;;;;;;;117.30;81.80;;;;;;;1.63;85.34;98758.44;119213;1150;65580;-80
2021/01/04 07:29:25;;;;;;;116.33;82.70;;;;;;;1.76;85.80;98766.76;119174;1150;65139;-80
2021/01/04 07:32:07;;;;;;;130.60;88.30;;;;;;;1.88;85.40;98761.08;119311;1150;65484;-80
2021/01/04 07:34:39;;;;;;;113.27;75.37;;;;;;;1.92;85.12;98765.33;119315;1150;65114;-80
2021/01/04 07:37:26;;;;;;;98.63;72.57;;;;;;;1.97;84.94;98766.03;119334;1150;65111;-80
2021/01/04 07:40:29;;;;;;;94.00;66.80;;;;;;;2.03;84.77;98757.06;119287;1150;65204;-79
2021/01/04 07:42:58;;;;;;;109.97;75.77;;;;;;;2.13;84.73;98762.81;118404;1154;65341;-77
2021/01/04 07:46:05;;;;;;;105.80;76.17;;;;;;;2.20;84.97;98766.95;118954;1150;65075;-80
2021/01/04 07:49:23;;;;;;;105.80;77.00;;;;;;;2.29;85.16;98765.74;119152;1150;65073;-78
2021/01/04 07:51:56;;;;;;;99.30;71.15;;;;;;;2.33;84.71;98775.25;118479;1151;65054;-77
2021/01/04 07:54:50;;;;;;;93.37;65.77;;;;;;;2.36;84.59;98775.13;119241;1150;65101;-78
2021/01/04 07:57:19;;;;;;;89.85;64.10;;;;;;;2.44;84.29;98769.58;119249;1151;65223;-75
2021/01/04 08:00:04;;;;;;;89.83;62.80;;;;;;;2.53;84.43;98774.52;118705;1151;65106;-75
2021/01/04 08:02:34;;;;;;;94.67;69.10;;;;;;;2.61;84.59;98775.08;118826;1150;65151;-75
2021/01/04 08:05:44;;;;;;;95.40;70.27;;;;;;;2.69;84.27;98778.27;119173;1150;65117;-75
2021/01/04 08:08:14;;;;;;;99.33;69.30;;;;;;;2.81;84.13;98776.92;118974;1150;65137;-75
2021/01/04 08:11:18;;;;;;;95.60;66.77;;;;;;;2.87;83.93;98763.55;119124;1150;65049;-75
2021/01/04 08:13:59;;;;;;;88.40;62.07;;;;;;;2.94;83.72;98774.67;119031;1150;65623;-76
2021/01/04 08:16:33;;;;;;;83.20;60.13;;;;;;;2.99;83.68;98767.45;118978;1150;65117;-79
2021/01/04 08:19:04;;;;;;;93.73;65.90;;;;;;;3.12;84.07;98758.14;118980;1150;65063;-85
2021/01/04 08:21:52;;;;;;;85.10;62.63;;;;;;;3.29;83.60;98755.69;119122;1151;65205;-81
2021/01/04 08:24:30;;;;;;;86.03;61.60;;;;;;;3.40;83.28;98760.51;119225;1151;65220;-83
2021/01/04 08:27:15;;;;;;;88.40;63.95;;;;;;;3.43;83.25;98759.52;119138;1150;65192;-83
2021/01/04 08:29:58;;;;;;;88.53;61.60;;;;;;;3.51;82.92;98767.95;119186;1150;65109;-83
2021/01/04 08:32:42;;;;;;;80.57;57.27;;;;;;;3.55;82.69;98774.80;119432;1151;65124;-81
2021/01/04 08:35:28;;;;;;;84.70;61.57;;;;;;;3.50;82.15;98772.38;119340;1150;65188;-81
2021/01/04 08:38:12;;;;;;;88.50;61.27;;;;;;;3.51;82.03;98770.59;119396;1150;65030;-81
2021/01/04 08:41:01;;;;;;;86.63;62.07;;;;;;;3.55;82.10;98766.04;119376;1150;65127;-83
2021/01/04 08:43:37;;;;;;;81.40;54.65;;;;;;;3.55;82.34;98780.06;119177;1151;65121;-82
2021/01/04 08:46:23;;;;;;;73.33;53.97;;;;;;;3.56;82.53;98770.41;119439;1150;65153;-82
2021/01/04 08:48:54;;;;;;;77.43;54.73;;;;;;;3.61;81.98;98774.56;119378;1151;65039;-82
2021/01/04 08:51:39;;;;;;;84.70;58.23;;;;;;;3.65;82.40;98770.01;118616;1151;65075;-79
2021/01/04 08:54:29;;;;;;;83.97;58.40;;;;;;;3.69;82.12;98755.80;118702;1151;65129;-84
2021/01/04 08:57:19;;;;;;;77.27;54.83;;;;;;;3.65;82.38;98777.91;119179;1150;65089;-82
2021/01/04 08:59:57;;;;;;;76.57;56.57;;;;;;;3.68;82.82;98767.23;119330;1150;65060;-81
2021/01/04 09:02:37;;;;;;;73.47;54.23;;;;;;;3.78;82.25;98767.70;119306;1150;65193;-81
2021/01/04 09:05:07;;;;;;;74.10;52.60;;;;;;;3.84;82.29;98773.55;119320;1151;65201;-81
2021/01/04 09:07:47;;;;;;;74.13;53.77;;;;;;;3.86;82.36;98776.14;119149;1150;65104;-81
2021/01/04 09:10:21;;;;;;;76.37;54.37;;;;;;;3.82;82.44;98778.06;119314;1151;65468;-82
2021/01/04 09:12:52;;;;;;;74.47;53.17;;;;;;;3.79;82.40;98779.95;119267;1151;65136;-81
2021/01/04 09:15:21;;;;;;;75.63;52.53;;;;;;;3.80;82.63;98774.63;118731;1150;65179;-80
2021/01/04 09:17:52;;;;;;;70.63;51.97;;;;;;;3.85;82.50;98777.08;118753;1151;65073;-82
2021/01/04 09:20:19;;;;;;;70.40;52.50;;;;;;;3.88;82.60;98775.16;119058;1150;65143;-82
2021/01/04 09:23:03;;;;;;;72.07;53.63;;;;;;;3.87;82.60;98776.09;119302;1150;65111;-80
2021/01/04 09:25:50;;;;;;;75.53;57.43;;;;;;;3.83;82.44;98765.73;119312;1149;65121;-80
2021/01/04 09:28:20;;;;;;;75.00;53.27;;;;;;;3.74;82.35;98767.84;118828;1151;65156;-82
2021/01/04 09:30:47;;;;;;;;;;;;;;;3.68;82.32;98764.60;118808;1151;65124;-81
2021/01/04 09:33:20;;;;;;;64.90;46.13;;;;;;;3.61;82.33;98758.75;119223;1150;65127;-82
2021/01/04 09:35:47;;;;;;;62.53;44.60;;;;;;;3.54;82.07;98765.19;119047;1150;65220;-80
2021/01/04 09:38:24;;;;;;;63.93;46.77;;;;;;;3.51;82.22;98760.05;119080;1150;65117;-80
2021/01/04 09:40:53;;;;;;;67.70;47.60;;;;;;;3.47;82.62;98756.67;119332;1150;65191;-80
2021/01/04 09:43:24;;;;;;;67.53;50.30;;;;;;;3.47;82.73;98761.94;119332;1150;65480;-82
2021/01/04 09:45:51;;;;;;;71.90;50.47;;;;;;;3.51;82.64;98765.33;119098;1151;65213;-82
2021/01/04 09:48:31;;;;;;;77.10;54.83;;;;;;;3.54;82.87;98765.19;118926;1150;65102;-82
2021/01/04 09:51:04;;;;;;;70.55;50.10;;;;;;;3.61;82.46;98756.11;119316;1150;65168;-80
2021/01/04 09:53:36;;;;;;;73.05;52.25;;;;;;;3.71;82.24;98757.44;119305;1151;65129;-80
2021/01/04 09:56:07;;;;;;;69.37;49.90;;;;;;;3.86;82.82;98757.69;119316;1151;65095;-81
2021/01/04 09:58:33;;;;;;;78.67;56.43;;;;;;;4.01;82.31;98761.45;119367;1151;65105;-80
2021/01/04 10:01:12;;;;;;;81.33;59.67;;;;;;;4.14;82.06;98757.34;119223;1150;65113;-80
2021/01/04 10:03:50;;;;;;;78.33;58.90;;;;;;;4.30;81.97;98757.50;119301;1149;65098;-80
2021/01/04 10:06:17;;;;;;;83.50;60.47;;;;;;;4.53;81.93;98749.39;119312;1150;65319;-80
2021/01/04 10:08:45;;;;;;;76.10;55.83;;;;;;;4.69;81.92;98744.26;119288;1151;65218;-80
2021/01/04 10:11:19;;;;;;;73.85;54.50;;;;;;;4.82;81.57;98742.75;118793;1151;65234;-80
2021/01/04 10:13:46;;;;;;;64.75;46.80;;;;;;;4.98;81.04;98728.81;118939;1150;65092;-80
2021/01/04 10:16:20;;;;;;;65.43;47.57;;;;;;;5.09;81.35;98728.29;119294;1151;65085;-81
2021/01/04 10:19:01;;;;;;;59.60;43.73;;;;;;;5.18;81.06;98718.11;119303;1150;65121;-82
2021/01/04 10:22:00;;;;;;;55.30;44.30;;;;;;;5.32;80.68;98711.28;119314;1150;65143;-82
2021/01/04 10:24:36;;;;;;;62.10;44.90;;;;;;;5.47;80.55;98714.00;118537;1149;65113;-82
2021/01/04 10:27:05;;;;;;;56.20;42.43;;;;;;;5.66;80.30;98715.70;118999;1150;65066;-81
2021/01/04 10:29:34;;;;;;;54.50;40.87;;;;;;;5.79;80.05;98710.64;119240;1150;65124;-81
2021/01/04 10:32:26;;;;;;;55.20;42.30;;;;;;;5.94;80.01;98705.44;119211;1151;65156;-79
2021/01/04 10:34:54;;;;;;;61.23;44.70;;;;;;;6.18;79.89;98706.87;118704;1150;65057;-80
2021/01/04 10:37:40;;;;;;;62.60;45.15;;;;;;;6.37;80.04;98712.87;119030;1150;65123;-82
2021/01/04 10:40:13;;;;;;;57.90;43.57;;;;;;;6.58;79.52;98710.84;119024;1150;65134;-80
2021/01/04 10:42:43;;;;;;;54.13;38.13;;;;;;;6.71;79.01;98705.72;119058;1151;65131;-81
2021/01/04 10:45:19;;;;;;;56.13;39.87;;;;;;;6.79;78.67;98708.79;118802;1150;65129;-82
2021/01/04 10:47:50;;;;;;;49.65;36.95;;;;;;;6.81;78.55;98699.82;118541;1150;65136;-82
2021/01/04 10:50:32;;;;;;;51.40;38.07;;;;;;;6.78;78.71;98712.39;118875;1150;65143;-80
2021/01/04 10:53:03;;;;;;;45.83;34.27;;;;;;;6.68;78.48;98708.55;118753;1150;65123;-81
2021/01/04 10:55:32;;;;;;;51.20;35.30;;;;;;;6.58;78.62;98710.84;118845;1151;65124;-80
2021/01/04 10:58:11;;;;;;;48.57;37.70;;;;;;;6.53;78.83;98711.12;118765;1151;65101;-81
2021/01/04 11:00:47;;;;;;;50.90;40.10;;;;;;;6.51;78.62;98712.14;119345;1151;65162;-81
2021/01/04 11:03:17;;;;;;;59.77;41.37;;;;;;;6.46;78.82;98704.44;119300;1150;65107;-80
2021/01/04 11:05:48;;;;;;;56.10;42.73;;;;;;;6.38;78.83;98706.66;119111;1150;65111;-80
2021/01/04 11:08:29;;;;;;;51.77;39.17;;;;;;;6.29;78.88;98705.37;119355;1150;65462;-80
2021/01/04 11:11:23;;;;;;;48.25;36.55;;;;;;;6.25;78.86;98705.61;119190;1150;65172;-80
2021/01/04 11:13:49;;;;;;;48.75;33.65;;;;;;;6.22;78.85;98700.48;119299;1150;65446;-80
2021/01/04 11:16:19;;;;;;;44.43;35.17;;;;;;;6.24;78.79;98703.88;119121;1151;65136;-81
2021/01/04 11:18:55;;;;;;;47.38;34.30;;;;;;;6.27;78.87;98696.66;119090;1151;65126;-82
2021/01/04 11:21:45;;;;;;;46.83;34.53;;;;;;;6.30;78.64;98692.98;119286;1150;65631;-82
2021/01/04 11:24:12;;;;;;;47.63;35.50;;;;;;;6.36;78.75;98693.49;119242;1150;65197;-81
2021/01/04 11:26:43;;;;;;;46.35;35.85;;;;;;;6.44;78.66;98692.23;119282;1150;65156;-80
2021/01/04 11:29:10;;;;;;;49.83;35.23;;;;;;;6.54;78.87;98693.43;119276;1150;65082;-81
2021/01/04 11:31:37;;;;;;;49.05;36.90;;;;;;;6.64;78.84;98694.63;119301;1150;65063;-80
2021/01/04 11:34:04;;;;;;;49.13;36.77;;;;;;;6.70;78.54;98688.98;119056;1151;65124;-80
2021/01/04 11:36:31;;;;;;;38.03;29.77;;;;;;;6.71;77.38;98693.33;119020;1150;65191;-81
2021/01/04 11:38:58;;;;;;;41.70;31.93;;;;;;;6.64;77.34;98683.20;119000;1151;65225;-80
2021/01/04 11:41:25;;;;;;;44.17;32.67;;;;;;;6.56;77.23;98676.52;119251;1150;65112;-81
2021/01/04 11:43:51;;;;;;;44.70;32.57;;;;;;;6.56;77.65;98683.62;119324;1150;65157;-80
2021/01/04 11:46:19;;;;;;;44.60;34.35;;;;;;;6.52;77.48;98680.27;119316;1149;65127;-80
2021/01/04 11:48:46;;;;;;;42.37;34.70;;;;;;;6.54;77.65;98682.84;119097;1150;65271;-80
2021/01/04 11:51:21;;;;;;;43.05;32.45;;;;;;;6.49;77.30;98676.95;119359;1150;65175;-81
2021/01/04 11:53:50;;;;;;;43.27;32.20;;;;;;;6.48;77.54;98677.90;119313;1150;65196;-81
2021/01/04 11:56:18;;;;;;;41.67;32.73;;;;;;;6.49;77.51;98675.15;119161;1150;65135;-81
2021/01/04 11:58:46;;;;;;;47.53;33.93;;;;;;;6.52;77.49;98676.77;118813;1150;65119;-81
2021/01/04 12:01:16;;;;;;;63.63;43.10;;;;;;;6.50;77.19;98674.23;119104;1151;65134;-80
2021/01/04 12:03:44;;;;;;;55.13;40.53;;;;;;;6.47;77.81;98669.08;118770;1151;65210;-82
2021/01/04 12:06:12;;;;;;;44.80;34.83;;;;;;;6.44;77.84;98663.11;118674;1151;65121;-80